createdAt,value
2023-03-22T00:01:36.923Z,1.08
2023-03-22T00:04:07.454Z,0.88
2023-03-22T00:06:37.688Z,1.05
2023-03-22T00:09:08.114Z,1.05
2023-03-22T00:11:38.330Z,1.73
2023-03-22T00:14:11.202Z,1.05
2023-03-22T00:16:41.440Z,1.33
2023-03-22T00:19:11.951Z,1.52
2023-03-22T00:21:42.165Z,1.23
2023-03-22T00:24:12.528Z,1.70
2023-03-22T00:26:42.747Z,1.45
2023-03-22T00:29:16.196Z,1.50
2023-03-22T00:31:46.523Z,2.15
2023-03-22T00:34:16.842Z,1.88
2023-03-22T00:36:48.572Z,1.85
2023-03-22T00:39:18.861Z,2.20
2023-03-22T00:41:49.161Z,2.38
2023-03-22T00:44:22.245Z,2.17
2023-03-22T00:46:52.454Z,2.25
2023-03-22T00:49:22.706Z,2.97
2023-03-22T00:51:52.886Z,3.42
2023-03-22T00:54:23.282Z,2.85
2023-03-22T00:56:53.537Z,2.40
2023-03-22T00:59:26.878Z,4.10
2023-03-22T01:01:59.111Z,3.30
2023-03-22T01:04:29.412Z,3.63
2023-03-22T01:07:02.337Z,3.58
2023-03-22T01:09:33.930Z,3.25
2023-03-22T01:12:05.064Z,3.40
2023-03-22T01:17:07.842Z,4.60
2023-03-22T01:19:38.559Z,4.30
2023-03-22T01:22:09.888Z,3.67
2023-03-22T01:24:40.142Z,5.15
2023-03-22T01:27:10.391Z,3.65
2023-03-22T01:29:40.925Z,4.15
2023-03-22T01:32:13.750Z,3.60
2023-03-22T01:34:43.986Z,4.18
2023-03-22T01:37:14.238Z,4.32
2023-03-22T01:39:44.799Z,3.42
2023-03-22T01:42:17.017Z,4.95
2023-03-22T01:44:47.905Z,3.95
2023-03-22T01:47:21.009Z,3.15
2023-03-22T01:49:51.301Z,5.63
2023-03-22T01:52:21.570Z,2.90
2023-03-22T01:54:53.301Z,3.28
2023-03-22T01:57:23.736Z,4.45
2023-03-22T01:59:54.176Z,3.72
2023-03-22T02:02:31.035Z,3.63
2023-03-22T02:05:01.615Z,4.57
2023-03-22T02:07:31.936Z,3.33
2023-03-22T02:10:02.321Z,4.22
2023-03-22T02:12:36.521Z,2.58
2023-03-22T02:15:10.122Z,3.72
2023-03-22T02:17:46.808Z,3.92
2023-03-22T02:20:40.165Z,3.28
2023-03-22T02:23:37.524Z,2.80
2023-03-22T02:26:31.701Z,4.30
2023-03-22T02:29:07.557Z,3.15
2023-03-22T02:31:46.976Z,2.70
2023-03-22T02:34:32.045Z,3.83
2023-03-22T02:37:10.315Z,2.15
2023-03-22T02:39:46.833Z,2.55
2023-03-22T02:42:27.440Z,2.85
2023-03-22T02:45:02.155Z,2.65
2023-03-22T02:47:38.783Z,2.80
2023-03-22T02:50:13.786Z,3.15
2023-03-22T02:52:46.674Z,3.72
2023-03-22T02:55:22.584Z,2.13
2023-03-22T02:57:55.663Z,3.35
2023-03-22T03:00:27.383Z,3.20
2023-03-22T03:03:00.612Z,2.88
2023-03-22T03:05:33.793Z,2.20
2023-03-22T03:08:05.849Z,3.42
2023-03-22T03:10:39.210Z,1.85
2023-03-22T03:13:09.573Z,3.25
2023-03-22T03:15:42.616Z,2.15
2023-03-22T03:18:20.957Z,3.08
2023-03-22T03:21:00.461Z,2.58
2023-03-22T03:23:36.830Z,3.17
2023-03-22T03:26:11.656Z,2.10
2023-03-22T03:28:45.037Z,2.50
2023-03-22T03:31:20.537Z,2.92
2023-03-22T03:33:56.028Z,2.17
2023-03-22T03:36:26.981Z,2.35
2023-03-22T03:38:58.962Z,2.60
2023-03-22T03:41:32.662Z,2.40
2023-03-22T03:44:03.150Z,1.40
2023-03-22T03:46:33.382Z,1.08
2023-03-22T03:49:04.087Z,2.60
2023-03-22T03:51:34.272Z,2.58
2023-03-22T03:54:04.546Z,1.73
2023-03-22T03:56:37.536Z,1.90
2023-03-22T03:59:08.502Z,1.27
2023-03-22T04:01:40.231Z,2.05
2023-03-22T04:04:10.713Z,2.20
2023-03-22T04:06:42.874Z,2.38
2023-03-22T04:09:13.247Z,1.70
2023-03-22T04:11:46.366Z,1.63
2023-03-22T04:14:16.639Z,2.10
2023-03-22T04:16:46.921Z,1.80
2023-03-22T04:19:17.338Z,2.25
2023-03-22T04:21:47.610Z,1.67
2023-03-22T04:24:18.109Z,1.95
2023-03-22T04:26:52.536Z,1.67
2023-03-22T04:29:23.080Z,1.52
2023-03-22T04:31:53.315Z,0.85
2023-03-22T04:34:23.556Z,1.90
2023-03-22T04:36:54.481Z,1.50
2023-03-22T04:39:24.732Z,1.13
2023-03-22T04:41:57.521Z,3.42
2023-03-22T04:44:27.909Z,2.20
2023-03-22T04:46:58.506Z,0.93
2023-03-22T04:49:29.332Z,2.03
2023-03-22T04:51:59.691Z,1.52
2023-03-22T04:54:30.139Z,1.40
2023-03-22T04:57:03.721Z,2.45
2023-03-22T04:59:33.987Z,1.70
2023-03-22T05:02:04.446Z,1.33
2023-03-22T05:04:34.733Z,1.30
2023-03-22T05:07:04.987Z,1.80
2023-03-22T05:09:36.078Z,1.70
2023-03-22T05:12:09.079Z,1.77
2023-03-22T05:14:39.428Z,4.00
2023-03-22T05:17:09.680Z,1.45
2023-03-22T05:19:40.090Z,1.10
2023-03-22T05:22:12.159Z,1.55
2023-03-22T05:24:42.780Z,1.27
2023-03-22T05:27:15.643Z,1.05
2023-03-22T05:29:46.913Z,1.15
2023-03-22T05:32:18.696Z,1.08
2023-03-22T05:34:48.959Z,1.67
2023-03-22T05:37:21.326Z,1.98
2023-03-22T05:39:51.598Z,1.65
2023-03-22T05:42:24.409Z,1.38
2023-03-22T05:44:54.707Z,3.15
2023-03-22T05:47:25.364Z,1.75
2023-03-22T05:49:55.688Z,0.85
2023-03-22T05:52:26.431Z,1.58
2023-03-22T05:54:57.037Z,1.10
2023-03-22T05:57:30.100Z,1.75
2023-03-22T06:00:01.919Z,1.05
2023-03-22T06:02:32.322Z,1.95
2023-03-22T06:05:02.587Z,1.15
2023-03-22T06:07:32.843Z,1.42
2023-03-22T06:10:04.012Z,1.42
2023-03-22T06:15:07.233Z,1.08
2023-03-22T06:17:38.040Z,1.48
2023-03-22T06:20:11.677Z,1.25
2023-03-22T06:22:42.066Z,1.23
2023-03-22T06:25:13.099Z,0.90
2023-03-22T06:27:43.363Z,1.23
2023-03-22T06:30:16.638Z,1.10
2023-03-22T06:32:46.864Z,1.98
2023-03-22T06:35:17.375Z,1.45
2023-03-22T06:37:47.784Z,1.25
2023-03-22T06:40:18.890Z,1.40
2023-03-22T06:42:49.653Z,1.13
2023-03-22T06:45:22.583Z,1.42
2023-03-22T06:47:53.098Z,1.92
2023-03-22T06:50:23.377Z,2.00
2023-03-22T06:52:53.590Z,1.30
2023-03-22T06:55:23.981Z,1.45
2023-03-22T06:57:54.246Z,1.40
2023-03-22T07:00:27.237Z,1.08
2023-03-22T07:02:57.509Z,1.42
2023-03-22T07:05:27.916Z,2.80
2023-03-22T07:07:58.127Z,1.10
2023-03-22T07:10:29.619Z,2.20
2023-03-22T07:13:00.506Z,1.88
2023-03-22T07:15:34.564Z,3.22
2023-03-22T07:18:07.699Z,1.88
2023-03-22T07:20:41.755Z,0.88
2023-03-22T07:23:13.094Z,0.90
2023-03-22T07:28:13.424Z,0.75
2023-03-22T07:30:46.264Z,1.15
2023-03-22T07:33:16.473Z,1.10
2023-03-22T07:35:46.763Z,1.15
2023-03-22T07:38:17.000Z,1.33
2023-03-22T07:40:47.211Z,1.17
2023-03-22T07:43:17.680Z,1.65
2023-03-22T07:45:51.995Z,0.95
2023-03-22T07:48:22.962Z,2.20
2023-03-22T07:53:23.332Z,1.42
2023-03-22T07:55:53.629Z,1.08
2023-03-22T07:58:24.097Z,1.48
2023-03-22T08:00:57.242Z,1.00
2023-03-22T08:03:27.619Z,0.68
2023-03-22T08:05:58.988Z,0.47
2023-03-22T08:08:29.178Z,1.27
2023-03-22T08:10:59.466Z,2.05
2023-03-22T08:13:29.757Z,1.60
2023-03-22T08:16:02.695Z,10.95
2023-03-22T08:18:32.956Z,1.20
2023-03-22T08:21:03.589Z,1.33
2023-03-22T08:23:41.504Z,0.95
2023-03-22T08:26:12.958Z,1.23
2023-03-22T08:28:43.164Z,1.27
2023-03-22T08:31:17.671Z,1.05
2023-03-22T08:33:48.189Z,0.68
2023-03-22T08:36:19.435Z,1.30
2023-03-22T08:38:49.682Z,0.85
2023-03-22T08:41:20.218Z,0.80
2023-03-22T08:43:50.454Z,1.00
2023-03-22T08:46:23.372Z,1.75
2023-03-22T08:48:53.918Z,1.15
2023-03-22T08:51:25.011Z,0.95
2023-03-22T08:56:27.319Z,1.85
2023-03-22T08:58:57.555Z,1.27
2023-03-22T09:01:31.275Z,1.75
2023-03-22T09:04:01.634Z,1.17
2023-03-22T09:06:32.427Z,1.30
2023-03-22T09:09:03.966Z,0.95
2023-03-22T09:11:35.634Z,1.55
2023-03-22T09:14:06.014Z,0.75
2023-03-22T09:16:39.070Z,1.10
2023-03-22T09:19:09.540Z,1.80
2023-03-22T09:21:39.878Z,1.02
2023-03-22T09:24:10.601Z,1.67
2023-03-22T09:26:40.917Z,1.25
2023-03-22T09:29:11.172Z,0.57
2023-03-22T09:31:44.793Z,1.17
2023-03-22T09:34:15.043Z,2.17
2023-03-22T09:36:45.588Z,0.65
2023-03-22T09:39:16.423Z,2.92
2023-03-22T09:41:48.523Z,1.25
2023-03-22T09:44:19.860Z,1.75
2023-03-22T09:46:53.401Z,1.50
2023-03-22T09:49:26.300Z,0.90
2023-03-22T09:51:57.436Z,1.40
2023-03-22T09:56:59.596Z,1.27
2023-03-22T09:59:34.795Z,2.40
2023-03-22T10:02:08.884Z,0.88
2023-03-22T10:04:53.910Z,0.93
2023-03-22T10:07:28.365Z,0.73
2023-03-22T10:10:05.584Z,1.35
2023-03-22T10:12:38.676Z,0.98
2023-03-22T10:15:13.633Z,0.95
2023-03-22T10:17:48.222Z,1.25
2023-03-22T10:20:25.541Z,1.40
2023-03-22T10:22:56.441Z,1.42
2023-03-22T10:25:31.721Z,1.40
2023-03-22T10:28:02.054Z,1.50
2023-03-22T10:30:34.193Z,1.23
2023-03-22T10:33:08.521Z,1.23
2023-03-22T10:35:39.527Z,1.58
2023-03-22T10:38:14.267Z,0.98
2023-03-22T10:40:44.816Z,1.15
2023-03-22T10:43:19.558Z,0.63
2023-03-22T10:45:50.016Z,1.08
2023-03-22T10:48:28.629Z,1.55
2023-03-22T10:51:00.109Z,1.08
2023-03-22T10:53:39.152Z,1.63
2023-03-22T10:56:10.536Z,1.45
2023-03-22T10:58:40.905Z,1.95
2023-03-22T11:01:12.205Z,0.65
2023-03-22T11:03:46.004Z,1.20
2023-03-22T11:06:17.847Z,1.17
2023-03-22T11:08:49.360Z,1.08
2023-03-22T11:11:20.835Z,1.15
2023-03-22T11:13:55.128Z,0.90
2023-03-22T11:16:26.344Z,0.73
2023-03-22T11:19:00.823Z,0.80
2023-03-22T11:21:33.302Z,1.10
2023-03-22T11:24:06.429Z,0.63
2023-03-22T11:26:40.781Z,1.45
2023-03-22T11:29:15.732Z,1.83
2023-03-22T11:31:57.351Z,1.02
2023-03-22T11:34:32.263Z,1.10
2023-03-22T11:37:03.573Z,0.77
2023-03-22T11:39:34.889Z,0.55
2023-03-22T11:42:06.505Z,0.73
2023-03-22T11:44:38.431Z,0.65
2023-03-22T11:47:11.822Z,0.90
2023-03-22T11:49:48.365Z,0.73
2023-03-22T11:52:21.467Z,0.65
2023-03-22T11:54:51.968Z,1.10
2023-03-22T11:57:27.244Z,0.85
2023-03-22T12:00:00.613Z,0.95
2023-03-22T12:02:32.822Z,1.05
2023-03-22T12:05:09.564Z,1.33
2023-03-22T12:07:40.090Z,1.42
2023-03-22T12:10:14.782Z,1.85
2023-03-22T12:12:48.064Z,0.82
2023-03-22T12:15:21.780Z,1.67
2023-03-22T12:17:55.113Z,0.98
2023-03-22T12:20:33.679Z,0.85
2023-03-22T12:23:05.506Z,1.27
2023-03-22T12:25:37.671Z,1.85
2023-03-22T12:28:10.902Z,0.80
2023-03-22T12:30:43.767Z,0.75
2023-03-22T12:33:18.066Z,1.38
2023-03-22T12:35:51.262Z,1.27
2023-03-22T12:38:28.115Z,1.38
2023-03-22T12:40:59.259Z,1.10
2023-03-22T12:46:02.731Z,1.23
2023-03-22T12:48:36.087Z,0.73
2023-03-22T12:51:10.026Z,1.23
2023-03-22T12:53:42.649Z,1.33
2023-03-22T12:56:14.428Z,1.15
2023-03-22T12:58:45.447Z,1.23
2023-03-22T13:03:48.760Z,0.70
2023-03-22T13:06:34.335Z,0.88
2023-03-22T13:09:16.129Z,1.02
2023-03-22T13:11:47.302Z,0.95
2023-03-22T13:14:44.618Z,1.70
2023-03-22T13:17:14.914Z,1.60
2023-03-22T13:19:55.263Z,1.38
2023-03-22T13:22:30.057Z,1.13
2023-03-22T13:25:17.249Z,1.60
2023-03-22T13:27:55.382Z,0.85
2023-03-22T13:30:27.320Z,0.88
2023-03-22T13:33:03.735Z,1.58
2023-03-22T13:35:42.181Z,1.20
2023-03-22T13:38:14.013Z,1.50
2023-03-22T13:40:50.789Z,1.00
2023-03-22T13:43:29.218Z,1.70
2023-03-22T13:46:06.287Z,1.42
2023-03-22T13:48:44.402Z,1.70
2023-03-22T13:51:17.451Z,2.90
2023-03-22T13:53:52.719Z,1.42
2023-03-22T13:56:35.296Z,1.08
2023-03-22T13:59:07.312Z,1.33
2023-03-22T14:01:39.200Z,1.33
2023-03-22T14:04:12.471Z,1.40
2023-03-22T14:06:47.069Z,1.35
2023-03-22T14:09:24.371Z,1.13
2023-03-22T14:12:00.881Z,1.70
2023-03-22T14:14:32.746Z,1.83
2023-03-22T14:17:05.921Z,2.25
2023-03-22T14:19:37.850Z,1.77
2023-03-22T14:52:38.504Z,2.17
2023-03-22T14:55:12.159Z,1.73
2023-03-22T14:57:47.087Z,1.65
2023-03-22T15:00:20.023Z,1.13
2023-03-22T15:02:51.237Z,2.10
2023-03-22T15:05:22.406Z,4.47
2023-03-22T15:10:24.983Z,1.85
2023-03-22T15:12:59.490Z,2.03
2023-03-22T15:15:31.988Z,2.72
2023-03-22T15:18:02.904Z,2.35
2023-03-22T15:20:34.549Z,1.92
2023-03-22T15:23:10.889Z,2.70
2023-03-22T15:25:41.359Z,2.05
2023-03-22T15:28:17.456Z,2.33
2023-03-22T15:30:48.982Z,1.83
2023-03-22T15:33:23.870Z,2.97
2023-03-22T15:35:54.987Z,2.17
2023-03-22T15:41:02.884Z,2.25
2023-03-22T15:43:38.585Z,2.58
2023-03-22T15:46:19.539Z,1.60
2023-03-22T15:48:53.837Z,2.70
2023-03-22T15:51:25.512Z,2.58
2023-03-22T15:53:56.443Z,3.20
2023-03-22T15:56:35.012Z,3.22
2023-03-22T15:59:08.783Z,2.63
2023-03-22T16:01:39.932Z,2.72
2023-03-22T16:06:40.354Z,4.20
2023-03-22T16:09:10.679Z,3.20
2023-03-22T16:11:42.021Z,3.40
2023-03-22T16:14:17.317Z,3.83
2023-03-22T16:16:48.725Z,1.65
2023-03-22T16:19:19.058Z,4.72
2023-03-22T16:21:49.439Z,3.95
2023-03-22T16:24:19.765Z,2.85
2023-03-22T16:26:50.142Z,2.60
2023-03-22T16:29:23.531Z,3.90
2023-03-22T16:31:56.101Z,4.07
2023-03-22T16:34:26.553Z,4.05
2023-03-22T16:36:57.896Z,4.53
2023-03-22T16:39:28.241Z,3.28
2023-03-22T16:41:58.708Z,5.13
2023-03-22T16:44:31.775Z,4.40
2023-03-22T16:47:02.131Z,5.78
2023-03-22T16:49:32.435Z,6.40
2023-03-22T16:52:03.249Z,5.88
2023-03-22T16:54:36.012Z,4.10
2023-03-22T16:57:06.786Z,6.35
2023-03-22T16:59:39.702Z,6.25
2023-03-22T17:02:15.175Z,5.75
2023-03-22T17:04:45.564Z,7.00
2023-03-22T17:07:16.924Z,5.80
2023-03-22T17:09:47.464Z,5.40
2023-03-22T17:12:20.506Z,3.97
2023-03-22T17:14:53.831Z,5.22
2023-03-22T17:17:26.103Z,2.90
2023-03-22T17:19:56.639Z,5.10
2023-03-22T17:22:28.040Z,4.03
2023-03-22T17:24:58.410Z,3.75
2023-03-22T17:27:28.840Z,3.72
2023-03-22T17:30:02.014Z,2.78
2023-03-22T17:32:46.674Z,3.17
2023-03-22T17:35:24.057Z,2.88
2023-03-22T17:37:54.564Z,3.72
2023-03-22T17:40:50.172Z,3.90
2023-03-22T17:43:16.306Z,3.47
2023-03-22T17:46:26.022Z,3.83
2023-03-22T17:48:39.796Z,3.97
2023-03-22T17:51:10.324Z,3.10
2023-03-22T17:56:48.799Z,3.17
2023-03-22T17:59:12.001Z,3.90
2023-03-22T18:01:45.044Z,2.78
2023-03-22T18:04:15.589Z,3.50
2023-03-22T18:06:46.388Z,4.07
2023-03-22T18:09:17.485Z,3.78
2023-03-22T18:11:47.815Z,3.15
2023-03-22T18:14:27.065Z,3.45
2023-03-22T18:17:02.662Z,3.28
2023-03-22T18:19:33.066Z,3.38
2023-03-22T18:22:03.398Z,4.82
2023-03-22T18:24:34.232Z,4.40
2023-03-22T18:27:11.253Z,3.22
2023-03-22T18:29:41.941Z,4.38
2023-03-22T18:32:18.601Z,2.90
2023-03-22T18:34:50.304Z,2.53
2023-03-22T18:37:22.265Z,3.70
2023-03-22T18:42:48.417Z,4.07
2023-03-22T18:45:21.103Z,3.38
2023-03-22T18:47:54.125Z,2.78
2023-03-22T18:50:24.697Z,2.95
2023-03-22T18:53:17.880Z,2.17
2023-03-22T18:55:51.499Z,3.85
2023-03-22T18:58:24.597Z,3.47
2023-03-22T19:00:56.187Z,3.60
2023-03-22T19:03:29.238Z,2.85
2023-03-22T19:06:06.598Z,2.38
2023-03-22T19:08:36.996Z,2.70
2023-03-22T19:11:09.663Z,2.78
2023-03-22T19:14:06.142Z,2.72
2023-03-22T19:16:30.591Z,4.03
2023-03-22T19:19:04.709Z,4.25
2023-03-22T19:21:36.083Z,1.80
2023-03-22T19:24:08.191Z,2.30
2023-03-22T19:29:11.612Z,3.95
2023-03-22T19:31:42.000Z,4.35
2023-03-22T19:34:15.104Z,3.67
2023-03-22T19:36:45.768Z,2.33
2023-03-22T19:39:16.796Z,3.35
2023-03-22T19:42:03.815Z,3.17
2023-03-22T19:44:36.938Z,3.95
2023-03-22T19:47:13.543Z,3.50
2023-03-22T19:49:47.696Z,4.18
2023-03-22T19:52:18.204Z,3.65
2023-03-22T19:54:48.593Z,4.70
2023-03-22T19:57:19.154Z,4.43
2023-03-22T20:00:11.992Z,2.97
2023-03-22T20:02:39.981Z,5.15
2023-03-22T20:05:17.611Z,4.43
2023-03-22T20:07:48.721Z,5.00
2023-03-22T20:10:38.846Z,4.05
2023-03-22T20:13:09.320Z,4.03
2023-03-22T20:15:39.908Z,2.47
2023-03-22T20:18:10.444Z,3.70
2023-03-22T20:20:43.435Z,2.15
2023-03-22T20:23:13.885Z,3.72
2023-03-22T20:25:45.590Z,3.25
2023-03-22T20:28:16.238Z,2.72
2023-03-22T20:30:46.838Z,2.78
2023-03-22T20:33:17.404Z,5.22
2023-03-22T20:35:51.416Z,2.25
2023-03-22T20:38:21.955Z,3.38
2023-03-22T20:40:52.477Z,3.00
2023-03-22T20:43:23.177Z,2.28
2023-03-22T20:45:53.963Z,2.60
2023-03-22T20:48:24.817Z,2.72
2023-03-22T20:50:57.738Z,1.80
2023-03-22T20:53:28.495Z,3.38
2023-03-22T20:55:59.989Z,2.42
2023-03-22T20:58:31.302Z,2.65
2023-03-22T21:03:34.029Z,1.45
2023-03-22T21:06:10.657Z,2.42
2023-03-22T21:08:41.390Z,2.25
2023-03-22T21:11:14.565Z,2.13
2023-03-22T21:13:45.285Z,2.97
2023-03-22T21:16:17.193Z,2.20
2023-03-22T21:18:47.870Z,1.65
2023-03-22T21:21:22.027Z,2.28
2023-03-22T21:23:52.623Z,2.30
2023-03-22T21:26:22.962Z,2.55
2023-03-22T21:28:53.370Z,3.83
2023-03-22T21:31:23.876Z,2.35
2023-03-22T21:33:54.378Z,2.10
2023-03-22T21:36:29.513Z,1.80
2023-03-22T21:39:03.111Z,1.75
2023-03-22T21:41:34.331Z,1.17
2023-03-22T21:44:06.731Z,1.92
2023-03-22T21:46:38.188Z,2.03
2023-03-22T21:49:09.599Z,2.10
2023-03-22T21:51:42.516Z,2.17
2023-03-22T21:54:14.436Z,1.88
2023-03-22T21:56:44.826Z,1.77
2023-03-22T21:59:15.886Z,1.48
2023-03-22T22:04:17.819Z,1.58
2023-03-22T22:06:51.127Z,1.77
2023-03-22T22:09:22.261Z,2.65
2023-03-22T22:14:22.806Z,1.15
2023-03-22T22:16:53.298Z,1.60
2023-03-22T22:19:23.750Z,2.13
2023-03-22T22:21:56.799Z,1.33
2023-03-22T22:24:27.406Z,1.27
2023-03-22T22:26:57.758Z,0.82
2023-03-22T22:29:28.332Z,1.10
2023-03-22T22:31:58.735Z,1.27
2023-03-22T22:34:30.150Z,1.77
2023-03-22T22:37:05.401Z,1.52
2023-03-22T22:39:41.234Z,1.02
2023-03-22T22:42:14.335Z,1.23
2023-03-22T22:44:54.909Z,2.08
2023-03-22T22:47:25.284Z,1.23
2023-03-22T22:49:57.428Z,1.40
2023-03-22T22:52:30.671Z,1.90
2023-03-22T22:55:01.393Z,1.17
2023-03-22T22:57:31.805Z,1.38
2023-03-22T23:00:02.202Z,1.65
2023-03-22T23:02:32.574Z,1.33
2023-03-22T23:05:02.945Z,1.50
2023-03-22T23:07:36.310Z,1.17
2023-03-22T23:10:07.335Z,1.00
2023-03-22T23:15:15.235Z,1.20
2023-03-22T23:18:00.218Z,1.52
2023-03-22T23:20:34.686Z,1.60
2023-03-22T23:23:08.109Z,1.92
2023-03-22T23:25:40.519Z,2.67
2023-03-22T23:28:11.339Z,1.13
2023-03-22T23:30:41.763Z,1.05
2023-03-22T23:33:12.797Z,1.20
2023-03-22T23:35:44.478Z,1.95
2023-03-22T23:38:17.710Z,1.65
2023-03-22T23:40:48.208Z,0.75
2023-03-22T23:43:18.683Z,1.88
2023-03-22T23:45:49.018Z,1.95
2023-03-22T23:48:19.569Z,1.40
2023-03-22T23:50:49.918Z,1.65
2023-03-22T23:53:23.044Z,1.73
2023-03-22T23:55:53.459Z,1.63
2023-03-22T23:58:24.004Z,1.55
